createdAt,value
2022-10-12T00:02:20.955Z,4.88
2022-10-12T00:04:49.342Z,4.72
2022-10-12T00:07:17.802Z,3.90
2022-10-12T00:09:47.878Z,4.53
2022-10-12T00:12:17.767Z,6.45
2022-10-12T00:14:45.629Z,3.67
2022-10-12T00:17:13.822Z,5.10
2022-10-12T00:19:42.013Z,4.32
2022-10-12T00:22:10.056Z,4.45
2022-10-12T00:24:43.770Z,4.22
2022-10-12T00:27:11.747Z,4.13
2022-10-12T00:29:45.957Z,5.75
2022-10-12T00:32:13.869Z,6.25
2022-10-12T00:34:50.114Z,7.03
2022-10-12T00:37:18.553Z,5.47
2022-10-12T00:39:50.035Z,13.20
2022-10-12T00:42:21.408Z,5.57
2022-10-12T00:44:50.387Z,9.55
2022-10-12T00:47:23.651Z,9.32
2022-10-12T00:49:56.475Z,8.85
2022-10-12T00:52:30.188Z,12.30
2022-10-12T00:54:58.387Z,8.50
2022-10-12T00:57:26.274Z,7.78
2022-10-12T01:00:02.368Z,8.95
2022-10-12T01:02:32.754Z,12.57
2022-10-12T01:05:01.498Z,14.80
2022-10-12T01:07:30.020Z,7.35
2022-10-12T01:10:00.484Z,11.93
2022-10-12T01:12:28.738Z,10.25
2022-10-12T01:14:57.267Z,13.95
2022-10-12T01:17:50.013Z,13.27
2022-10-12T01:20:26.485Z,15.52
2022-10-12T01:23:06.894Z,13.98
2022-10-12T01:26:09.315Z,17.23
2022-10-12T01:28:55.644Z,16.15
2022-10-12T01:31:38.667Z,14.73
2022-10-12T01:34:20.586Z,14.40
2022-10-12T01:37:28.511Z,15.35
2022-10-12T01:40:01.717Z,23.25
2022-10-12T01:42:37.529Z,19.55
2022-10-12T01:45:07.286Z,15.93
2022-10-12T01:47:36.550Z,17.80
2022-10-12T01:50:08.606Z,20.02
2022-10-12T01:52:45.000Z,21.17
2022-10-12T01:55:30.150Z,20.38
2022-10-12T01:58:18.698Z,16.85
2022-10-12T02:00:53.301Z,19.27
2022-10-12T02:03:42.904Z,21.40
2022-10-12T02:06:15.566Z,31.38
2022-10-12T02:08:57.588Z,41.97
2022-10-12T02:11:26.479Z,24.35
2022-10-12T02:14:09.186Z,24.80
2022-10-12T02:17:01.293Z,28.25
2022-10-12T02:19:33.383Z,23.90
2022-10-12T02:22:04.716Z,28.70
2022-10-12T02:24:33.524Z,22.67
2022-10-12T02:27:02.897Z,29.65
2022-10-12T02:29:51.338Z,28.50
2022-10-12T02:32:31.400Z,25.73
2022-10-12T02:35:14.267Z,31.40
2022-10-12T02:37:49.340Z,42.20
2022-10-12T02:40:37.860Z,31.00
2022-10-12T02:45:55.222Z,32.47
2022-10-12T02:48:27.394Z,28.23
2022-10-12T02:50:57.180Z,28.52
2022-10-12T02:53:26.117Z,31.77
2022-10-12T02:56:00.289Z,27.52
2022-10-12T03:01:01.159Z,36.47
2022-10-12T03:03:30.235Z,28.83
2022-10-12T03:06:02.192Z,27.45
2022-10-12T03:08:35.139Z,36.40
2022-10-12T03:11:07.195Z,30.00
2022-10-12T03:13:36.141Z,25.63
2022-10-12T03:16:04.795Z,28.77
2022-10-12T03:18:34.548Z,23.67
2022-10-12T03:21:03.193Z,25.85
2022-10-12T03:23:31.369Z,30.02
2022-10-12T03:26:00.326Z,26.77
2022-10-12T03:28:30.719Z,23.67
2022-10-12T03:30:59.686Z,25.00
2022-10-12T03:33:29.022Z,25.33
2022-10-12T03:36:41.831Z,26.63
2022-10-12T03:39:21.230Z,26.08
2022-10-12T03:42:23.853Z,35.03
2022-10-12T03:44:52.180Z,23.17
2022-10-12T03:47:21.129Z,25.17
2022-10-12T03:49:51.241Z,27.98
2022-10-12T03:52:19.770Z,22.63
2022-10-12T03:54:48.037Z,24.35
2022-10-12T03:57:16.891Z,27.58
2022-10-12T03:59:46.186Z,27.48
2022-10-12T04:02:30.502Z,24.88
2022-10-12T04:05:01.163Z,24.55
2022-10-12T04:07:34.297Z,22.27
2022-10-12T04:10:03.581Z,26.85
2022-10-12T04:12:33.338Z,32.65
2022-10-12T04:15:03.383Z,24.98
2022-10-12T04:17:33.975Z,31.30
2022-10-12T04:20:04.161Z,20.35
2022-10-12T04:22:33.221Z,26.33
2022-10-12T04:25:12.737Z,25.35
2022-10-12T04:27:48.218Z,23.17
2022-10-12T04:30:19.392Z,20.00
2022-10-12T04:32:49.445Z,31.25
2022-10-12T04:35:28.202Z,26.52
2022-10-12T04:37:56.462Z,22.20
2022-10-12T04:41:06.005Z,19.00
2022-10-12T04:43:34.065Z,18.85
2022-10-12T04:47:08.992Z,20.52
2022-10-12T04:49:40.194Z,24.92
2022-10-12T04:52:11.257Z,20.58
2022-10-12T04:55:46.004Z,16.30
2022-10-12T04:58:14.309Z,16.98
2022-10-12T05:00:45.181Z,20.33
2022-10-12T05:03:16.636Z,23.80
2022-10-12T05:05:45.991Z,15.90
2022-10-12T05:08:22.202Z,19.48
2022-10-12T05:13:21.305Z,22.90
2022-10-12T05:15:51.252Z,17.38
2022-10-12T05:18:20.474Z,23.73
2022-10-12T05:20:50.431Z,18.52
2022-10-12T05:23:24.095Z,26.80
2022-10-12T05:25:52.181Z,18.25
2022-10-12T05:28:20.529Z,23.17
2022-10-12T05:30:55.711Z,23.50
2022-10-12T05:33:24.724Z,22.35
2022-10-12T05:36:58.530Z,28.42
2022-10-12T05:39:26.904Z,23.55
2022-10-12T05:41:56.211Z,22.15
2022-10-12T05:44:26.445Z,22.48
2022-10-12T05:46:55.127Z,25.52
2022-10-12T05:49:24.310Z,24.63
2022-10-12T05:52:13.326Z,23.98
2022-10-12T05:54:43.361Z,24.90
2022-10-12T05:57:15.910Z,24.17
2022-10-12T05:59:48.315Z,26.45
2022-10-12T06:02:18.490Z,26.65
2022-10-12T06:04:48.707Z,28.92
2022-10-12T06:07:18.430Z,26.90
2022-10-12T06:09:47.914Z,33.92
2022-10-12T06:12:24.518Z,28.52
2022-10-12T06:14:56.207Z,32.58
2022-10-12T06:17:24.274Z,28.63
2022-10-12T06:19:52.665Z,32.13
2022-10-12T06:22:24.725Z,31.20
2022-10-12T06:24:54.389Z,33.60
2022-10-12T06:27:22.406Z,35.13
2022-10-12T06:29:52.410Z,36.08
2022-10-12T06:32:22.666Z,35.80
2022-10-12T06:34:56.535Z,33.80
2022-10-12T06:37:48.614Z,35.05
2022-10-12T06:40:22.654Z,32.83
2022-10-12T06:45:21.759Z,31.27
2022-10-12T06:47:51.362Z,34.53
2022-10-12T06:50:25.420Z,36.75
2022-10-12T06:53:00.390Z,28.73
2022-10-12T06:55:31.800Z,33.42
2022-10-12T06:58:01.627Z,32.10
2022-10-12T07:00:32.480Z,26.42
2022-10-12T07:03:00.518Z,33.15
2022-10-12T07:05:40.719Z,29.85
2022-10-12T07:08:09.080Z,28.73
2022-10-12T07:10:37.546Z,29.52
2022-10-12T07:13:05.792Z,29.52
2022-10-12T07:15:53.598Z,38.30
2022-10-12T07:18:23.673Z,33.97
2022-10-12T07:20:52.002Z,36.00
2022-10-12T07:23:32.528Z,32.35
2022-10-12T07:26:00.508Z,31.88
2022-10-12T07:28:28.462Z,31.80
2022-10-12T07:31:18.900Z,27.38
2022-10-12T07:33:52.292Z,25.20
2022-10-12T07:36:40.966Z,30.60
2022-10-12T07:39:13.275Z,31.63
2022-10-12T07:41:42.735Z,28.42
2022-10-12T07:44:12.450Z,26.77
2022-10-12T07:46:40.694Z,25.92
2022-10-12T07:49:13.942Z,39.00
2022-10-12T07:51:42.849Z,37.53
2022-10-12T07:54:22.606Z,43.90
2022-10-12T07:56:54.033Z,44.33
2022-10-12T07:59:22.384Z,43.42
2022-10-12T08:01:51.838Z,49.28
2022-10-12T08:04:25.524Z,40.03
2022-10-12T08:06:54.285Z,35.60
2022-10-12T08:09:30.974Z,42.22
2022-10-12T08:12:28.891Z,41.55
2022-10-12T08:14:56.743Z,39.50
2022-10-12T08:18:35.231Z,43.97
2022-10-12T08:21:07.053Z,35.95
2022-10-12T08:23:38.321Z,36.92
2022-10-12T08:26:06.929Z,41.67
2022-10-12T08:28:37.757Z,47.30
2022-10-12T08:31:12.934Z,42.13
2022-10-12T08:33:43.503Z,39.88
2022-10-12T08:36:12.091Z,41.92
2022-10-12T08:38:40.784Z,36.50
2022-10-12T08:41:29.594Z,46.35
2022-10-12T08:44:27.613Z,45.25
2022-10-12T08:47:01.353Z,44.13
2022-10-12T08:49:36.575Z,52.60
2022-10-12T08:52:30.907Z,50.03
2022-10-12T08:55:25.808Z,36.13
2022-10-12T08:57:54.506Z,31.67
2022-10-12T09:01:58.439Z,25.25
2022-10-12T09:05:21.875Z,19.92
2022-10-12T09:07:55.118Z,19.33
2022-10-12T09:10:31.990Z,18.30
2022-10-12T09:13:24.569Z,24.33
2022-10-12T09:16:19.309Z,24.33
2022-10-12T09:18:51.444Z,25.17
2022-10-12T09:21:21.163Z,19.15
2022-10-12T09:25:00.023Z,21.38
2022-10-12T09:27:33.126Z,13.85
2022-10-12T09:30:05.960Z,10.57
2022-10-12T09:33:04.116Z,12.50
2022-10-12T09:35:33.007Z,13.50
2022-10-12T09:38:01.975Z,14.88
2022-10-12T09:40:33.899Z,18.10
2022-10-12T09:43:04.909Z,14.98
2022-10-12T09:45:40.878Z,16.92
2022-10-12T09:50:55.009Z,16.02
2022-10-12T09:53:43.934Z,18.67
2022-10-12T09:56:29.399Z,19.05
2022-10-12T09:59:04.954Z,16.50
2022-10-12T10:01:37.270Z,21.23
2022-10-12T10:04:14.536Z,17.90
2022-10-12T10:06:44.754Z,17.40
2022-10-12T10:09:33.826Z,16.50
2022-10-12T10:12:33.783Z,10.55
2022-10-12T10:15:02.368Z,11.70
2022-10-12T10:17:32.834Z,8.90
2022-10-12T10:20:03.169Z,14.57
2022-10-12T10:22:33.387Z,10.00
2022-10-12T10:25:03.255Z,11.38
2022-10-12T10:27:38.869Z,13.93
2022-10-12T10:30:33.902Z,11.65
2022-10-12T10:33:16.481Z,12.18
2022-10-12T10:36:18.376Z,11.05
2022-10-12T10:38:55.261Z,12.63
2022-10-12T10:41:39.060Z,12.13
2022-10-12T10:47:16.874Z,12.15
2022-10-12T10:49:51.001Z,12.18
2022-10-12T10:52:30.991Z,11.88
2022-10-12T10:55:11.111Z,7.90
2022-10-12T10:57:59.619Z,7.50
2022-10-12T11:00:39.219Z,11.32
2022-10-12T11:03:17.761Z,8.00
2022-10-12T11:06:18.211Z,9.55
2022-10-12T11:08:48.887Z,6.88
2022-10-12T11:11:21.926Z,8.30
2022-10-12T11:18:24.871Z,8.20
2022-10-12T11:21:00.121Z,5.93
2022-10-12T11:23:51.256Z,6.47
2022-10-12T11:26:43.888Z,7.72
2022-10-12T11:29:18.078Z,6.22
2022-10-12T11:31:49.531Z,6.88
2022-10-12T11:34:22.694Z,6.60
2022-10-12T11:37:14.675Z,6.95
2022-10-12T11:39:42.049Z,7.45
2022-10-12T11:42:28.386Z,5.25
2022-10-12T11:47:39.653Z,7.47
2022-10-12T11:50:33.605Z,9.13
2022-10-12T11:53:03.279Z,5.00
2022-10-12T11:55:31.908Z,16.67
2022-10-12T11:58:07.638Z,4.93
2022-10-12T12:01:06.792Z,8.48
2022-10-12T12:03:46.787Z,8.10
2022-10-12T12:06:30.201Z,8.85
2022-10-12T12:09:04.262Z,6.97
2022-10-12T12:11:33.933Z,9.52
2022-10-12T12:14:32.846Z,12.40
2022-10-12T12:17:17.222Z,6.07
2022-10-12T12:19:50.307Z,8.93
2022-10-12T12:22:25.813Z,9.05
2022-10-12T12:25:04.776Z,6.78
2022-10-12T12:27:56.823Z,10.63
2022-10-12T12:30:33.383Z,9.00
2022-10-12T12:33:03.612Z,9.48
2022-10-12T12:35:33.676Z,12.55
2022-10-12T12:38:25.888Z,10.90
2022-10-12T12:40:59.323Z,11.15
2022-10-12T12:43:31.451Z,12.55
2022-10-12T12:46:08.143Z,14.88
2022-10-12T12:48:42.376Z,13.43
2022-10-12T12:51:23.944Z,15.20
2022-10-12T12:54:24.311Z,13.73
2022-10-12T12:57:09.201Z,11.32
2022-10-12T12:59:42.757Z,10.48
2022-10-12T13:02:29.903Z,7.55
2022-10-12T13:05:06.900Z,12.43
2022-10-12T13:07:39.334Z,9.95
2022-10-12T13:10:07.725Z,14.02
2022-10-12T13:13:07.958Z,9.30
2022-10-12T13:16:05.267Z,8.43
2022-10-12T13:18:58.267Z,9.38
2022-10-12T13:21:47.937Z,12.45
2022-10-12T13:24:28.697Z,7.72
2022-10-12T13:27:04.592Z,12.73
2022-10-12T13:29:41.716Z,10.90
2022-10-12T13:32:41.895Z,16.73
2022-10-12T13:35:23.191Z,12.80
2022-10-12T13:38:01.433Z,15.23
2022-10-12T13:40:37.294Z,13.85
2022-10-12T13:43:28.517Z,10.25
2022-10-12T13:45:56.718Z,9.95
2022-10-12T13:48:53.740Z,13.95
2022-10-12T13:51:25.169Z,12.10
2022-10-12T13:53:55.085Z,7.70
2022-10-12T13:56:28.824Z,18.75
2022-10-12T13:59:01.683Z,12.15
2022-10-12T14:01:31.097Z,11.48
2022-10-12T14:04:04.666Z,10.15
2022-10-12T14:06:34.625Z,10.90
2022-10-12T14:09:10.789Z,14.40
2022-10-12T14:11:42.647Z,10.18
2022-10-12T14:14:38.942Z,14.40
2022-10-12T14:17:07.109Z,12.38
2022-10-12T14:19:48.117Z,20.35
2022-10-12T14:22:22.187Z,12.90
2022-10-12T14:24:52.499Z,9.23
2022-10-12T14:27:25.800Z,11.73
2022-10-12T14:29:58.221Z,8.73
2022-10-12T14:32:38.171Z,8.27
2022-10-12T14:35:13.019Z,16.30
2022-10-12T14:37:41.060Z,14.32
2022-10-12T14:40:29.853Z,13.73
2022-10-12T14:43:00.080Z,12.30
2022-10-12T14:45:29.211Z,14.45
2022-10-12T14:47:59.777Z,14.90
2022-10-12T14:50:29.075Z,16.45
2022-10-12T14:52:58.326Z,18.42
2022-10-12T14:55:28.871Z,11.77
2022-10-12T14:57:56.904Z,16.73
2022-10-12T15:00:30.133Z,18.05
2022-10-12T15:02:58.826Z,32.15
2022-10-12T15:05:29.224Z,24.27
2022-10-12T15:07:59.804Z,30.10
2022-10-12T15:10:31.101Z,32.38
2022-10-12T15:12:59.997Z,49.47
2022-10-12T15:15:40.193Z,40.97
2022-10-12T15:18:16.986Z,33.47
2022-10-12T15:20:49.827Z,21.80
2022-10-12T15:23:19.061Z,21.52
2022-10-12T15:26:01.462Z,39.72
2022-10-12T15:28:34.387Z,124.32
2022-10-12T15:31:19.703Z,121.47
2022-10-12T15:33:48.183Z,70.95
2022-10-12T15:36:16.932Z,56.40
2022-10-12T15:38:45.001Z,63.70
2022-10-12T15:41:38.634Z,43.83
2022-10-12T15:44:06.817Z,46.58
2022-10-12T15:46:34.976Z,29.02
2022-10-12T15:49:02.963Z,20.27
2022-10-12T15:51:31.098Z,19.02
2022-10-12T15:53:59.597Z,16.50
2022-10-12T15:56:31.066Z,16.77
2022-10-12T15:58:59.104Z,20.75
2022-10-12T16:01:29.644Z,15.38
2022-10-12T16:03:57.526Z,22.63
2022-10-12T16:06:26.546Z,18.27
2022-10-12T16:08:54.648Z,15.98
2022-10-12T16:11:23.801Z,25.08
2022-10-12T16:13:56.942Z,20.67
2022-10-12T16:16:25.402Z,19.65
2022-10-12T16:18:55.017Z,23.65
2022-10-12T16:21:23.038Z,21.67
2022-10-12T16:23:50.934Z,32.13
2022-10-12T16:26:27.484Z,47.85
2022-10-12T16:28:56.084Z,46.55
2022-10-12T16:31:24.283Z,43.60
2022-10-12T16:33:53.110Z,41.97
2022-10-12T16:36:21.931Z,39.55
2022-10-12T16:39:09.953Z,36.47
2022-10-12T16:41:40.425Z,41.20
2022-10-12T16:44:08.810Z,34.63
2022-10-12T16:46:37.865Z,39.00
2022-10-12T16:49:06.652Z,32.88
2022-10-12T16:51:39.231Z,43.40
2022-10-12T16:54:11.857Z,36.28
2022-10-12T16:56:41.243Z,41.15
2022-10-12T16:59:16.451Z,64.35
2022-10-12T17:01:49.707Z,50.00
2022-10-12T17:04:18.110Z,49.67
2022-10-12T17:06:46.334Z,37.65
2022-10-12T17:09:14.100Z,27.38
2022-10-12T17:11:42.040Z,27.50
2022-10-12T17:14:17.734Z,28.95
2022-10-12T17:16:50.806Z,27.48
2022-10-12T17:19:27.246Z,24.00
2022-10-12T17:21:58.606Z,25.30
2022-10-12T17:24:33.422Z,28.05
2022-10-12T17:27:05.355Z,22.65
2022-10-12T17:29:45.260Z,23.40
2022-10-12T17:32:14.690Z,23.85
2022-10-12T17:34:46.207Z,24.52
2022-10-12T17:37:16.396Z,23.40
2022-10-12T17:39:49.411Z,22.40
2022-10-12T17:42:22.846Z,26.02
2022-10-12T17:44:51.256Z,20.70
2022-10-12T17:47:20.208Z,23.40
2022-10-12T17:49:48.818Z,27.30
2022-10-12T17:52:19.628Z,31.52
2022-10-12T17:54:47.997Z,35.63
2022-10-12T17:57:16.185Z,55.53
2022-10-12T17:59:44.586Z,58.17
2022-10-12T18:02:12.853Z,65.40
2022-10-12T18:04:41.418Z,56.65
2022-10-12T18:07:09.669Z,53.55
2022-10-12T18:09:39.162Z,47.80
2022-10-12T18:12:07.027Z,47.90
2022-10-12T18:14:35.488Z,50.70
2022-10-12T18:17:51.364Z,49.97
2022-10-12T18:20:19.945Z,57.53
2022-10-12T18:22:47.858Z,49.40
2022-10-12T18:25:19.686Z,52.22
2022-10-12T18:27:50.355Z,50.88
2022-10-12T18:30:18.974Z,47.20
2022-10-12T18:32:49.157Z,45.58
2022-10-12T18:35:17.202Z,45.65
2022-10-12T18:37:45.237Z,42.83
2022-10-12T18:40:16.410Z,38.17
2022-10-12T18:42:44.857Z,38.83
2022-10-12T18:45:21.617Z,35.65
2022-10-12T18:47:53.084Z,35.75
2022-10-12T18:50:21.467Z,31.60
2022-10-12T18:52:49.713Z,27.83
2022-10-12T18:55:22.246Z,30.58
2022-10-12T18:57:50.294Z,27.90
2022-10-12T19:00:19.159Z,33.38
2022-10-12T19:02:47.219Z,34.17
2022-10-12T19:05:17.615Z,27.50
2022-10-12T19:07:50.409Z,22.55
2022-10-12T19:14:04.215Z,29.13
2022-10-12T19:16:57.490Z,22.92
2022-10-12T19:19:35.909Z,22.30
2022-10-12T19:22:06.620Z,27.85
2022-10-12T19:24:35.585Z,27.80
2022-10-12T19:27:04.334Z,21.35
2022-10-12T19:29:45.841Z,18.35
2022-10-12T19:32:14.211Z,20.90
2022-10-12T19:34:45.396Z,25.48
2022-10-12T19:37:16.432Z,20.70
2022-10-12T19:39:47.229Z,23.85
2022-10-12T19:42:49.373Z,22.42
2022-10-12T19:45:19.533Z,21.25
2022-10-12T19:47:53.715Z,28.90
2022-10-12T19:51:47.788Z,22.70
2022-10-12T19:54:52.817Z,19.25
2022-10-12T19:57:23.893Z,27.38
2022-10-12T19:59:52.699Z,26.38
2022-10-12T20:02:24.504Z,21.90
2022-10-12T20:04:54.387Z,21.77
2022-10-12T20:07:23.666Z,21.30
2022-10-12T20:09:51.999Z,24.58
2022-10-12T20:12:20.962Z,19.85
2022-10-12T20:14:49.171Z,20.15
2022-10-12T20:17:17.593Z,16.73
2022-10-12T20:19:46.298Z,19.80
2022-10-12T20:22:14.205Z,23.08
2022-10-12T20:24:42.199Z,20.90
2022-10-12T20:27:09.950Z,19.05
2022-10-12T20:29:41.594Z,22.70
2022-10-12T20:32:10.462Z,23.40
2022-10-12T20:34:38.645Z,19.90
2022-10-12T20:37:08.234Z,17.60
2022-10-12T20:39:37.543Z,19.10
2022-10-12T20:42:05.417Z,19.42
2022-10-12T20:44:33.463Z,19.35
2022-10-12T20:47:02.222Z,18.17
2022-10-12T20:49:31.485Z,19.30
2022-10-12T20:52:00.590Z,19.38
2022-10-12T20:54:32.466Z,18.80
2022-10-12T20:57:00.835Z,18.13
2022-10-12T20:59:28.757Z,19.52
2022-10-12T21:01:56.687Z,19.50
2022-10-12T21:04:26.431Z,21.10
2022-10-12T21:06:54.458Z,19.50
2022-10-12T21:09:23.183Z,19.92
2022-10-12T21:11:51.310Z,13.35
2022-10-12T21:14:19.365Z,15.90
2022-10-12T21:16:47.512Z,18.30
2022-10-12T21:19:16.798Z,17.48
2022-10-12T21:21:46.779Z,20.02
2022-10-12T21:24:14.855Z,22.83
2022-10-12T21:26:42.996Z,19.10
2022-10-12T21:29:12.033Z,16.52
2022-10-12T21:31:40.383Z,19.05
2022-10-12T21:34:10.396Z,16.33
2022-10-12T21:36:38.598Z,15.88
2022-10-12T21:39:14.370Z,15.73
2022-10-12T21:41:44.174Z,21.27
2022-10-12T21:44:12.359Z,16.17
2022-10-12T21:46:40.280Z,22.27
2022-10-12T21:49:15.405Z,19.00
2022-10-12T21:51:43.422Z,17.65
2022-10-12T21:54:11.357Z,16.00
2022-10-12T21:56:39.294Z,15.82
2022-10-12T21:59:10.610Z,16.35
2022-10-12T22:01:40.409Z,15.20
2022-10-12T22:04:14.347Z,20.55
2022-10-12T22:06:43.334Z,19.35
2022-10-12T22:09:16.804Z,21.02
2022-10-12T22:11:48.169Z,16.13
2022-10-12T22:14:18.098Z,13.18
2022-10-12T22:16:46.249Z,17.73
2022-10-12T22:19:18.393Z,15.88
2022-10-12T22:21:47.459Z,15.73
2022-10-12T22:24:16.038Z,15.30
2022-10-12T22:26:43.906Z,17.40
2022-10-12T22:29:13.531Z,16.35
2022-10-12T22:31:47.821Z,14.40
2022-10-12T22:34:18.837Z,10.65
2022-10-12T22:36:47.715Z,13.18
2022-10-12T22:39:20.852Z,13.82
2022-10-12T22:41:48.890Z,13.27
2022-10-12T22:44:16.768Z,14.07
2022-10-12T22:46:44.655Z,10.05
2022-10-12T22:49:13.538Z,11.68
2022-10-12T22:51:41.560Z,11.80
2022-10-12T22:54:10.034Z,10.27
2022-10-12T22:56:42.527Z,13.95
2022-10-12T22:59:15.471Z,12.10
2022-10-12T23:01:43.965Z,14.65
2022-10-12T23:04:11.980Z,14.82
2022-10-12T23:06:40.758Z,12.10
2022-10-12T23:09:10.028Z,13.68
2022-10-12T23:11:38.093Z,8.52
2022-10-12T23:14:06.104Z,11.82
2022-10-12T23:16:34.462Z,16.13
2022-10-12T23:19:04.016Z,13.48
2022-10-12T23:21:32.808Z,13.77
2022-10-12T23:24:05.219Z,10.75
2022-10-12T23:26:34.697Z,16.45
2022-10-12T23:29:05.338Z,12.68
2022-10-12T23:31:35.708Z,13.48
2022-10-12T23:34:10.135Z,11.73
2022-10-12T23:36:38.250Z,11.90
2022-10-12T23:39:06.206Z,10.13
2022-10-12T23:41:34.335Z,11.60
2022-10-12T23:44:02.326Z,14.13
2022-10-12T23:46:30.804Z,13.32
2022-10-12T23:49:00.564Z,10.75
2022-10-12T23:51:28.904Z,11.65
2022-10-12T23:53:57.640Z,15.07
2022-10-12T23:56:25.822Z,14.98
2022-10-12T23:58:56.950Z,12.55
